Monday, November 20, 2017, 2:07 PM EST
Back to Local

KPQI, Presque Isle

Location: Presque Isle, ME, United States Lat: 46.683
Local Time: 2:07 PM EST (19:07 GMT) Lon: -68.05
Time Zone: US/Eastern Elev: 534 ft

Show me the last for .
Show Decoded

2017-11-20 13:56 METAR KPQI 201856Z AUTO 28022G28KT 9SM BKN033 OVC042 M05/M12 A2962 RMK AO2 PK
                 WND 28029/1846 SNE53 SLP074 P0000 T10501117 FZRANO =
2017-11-20 12:56 METAR KPQI 201756Z AUTO 26013G19KT 3SM -SN FEW022 OVC030 M04/M09 A2960 RMK AO2
                 SNB02 SLP070 P0000 60000 T10441094 11028 21044 53014 FZRANO =
2017-11-20 12:17 METAR KPQI 201717Z AUTO 28011G21KT 7SM -SN BKN025 BKN029 OVC042 M04/M09 A2959
                 RMK AO2 SNB02 P0000 FZRANO =
2017-11-20 11:56 METAR KPQI 201656Z AUTO 28015G25KT 10SM SCT036 OVC050 M03/M10 A2958 RMK AO2 PK
                 WND 28032/1623 SNE45 SLP062 P0000 T10331100 FZRANO =
2017-11-20 10:56 METAR KPQI 201556Z AUTO 27017G25KT 8SM -SN OVC032 M03/M08 A2957 RMK AO2 SNB31
                 SLP058 P0000 T10281083 FZRANO =
2017-11-20 09:56 METAR KPQI 201456Z AUTO 28013G20KT 10SM FEW030 BKN047 OVC055 M03/M09 A2956 RMK
                 AO2 PK WND 28026/1415 SLP054 T10331089 51009 FZRANO =
2017-11-20 09:21 METAR KPQI 201421Z AUTO 28010G26KT 10SM SCT029 OVC045 M04/M09 A2956 RMK AO2 PK
                 WND 28026/1415 FZRANO =
2017-11-20 08:56 METAR KPQI 201356Z AUTO 27015G22KT 10SM BKN029 OVC033 M04/M09 A2955 RMK AO2
                 SLP051 T10441089 FZRANO =
2017-11-20 08:52 METAR KPQI 201352Z AUTO 27015G22KT 10SM BKN029 BKN034 OVC050 M04/M09 A2955 RMK
                 AO2 FZRANO =
2017-11-20 07:56 METAR KPQI 201256Z AUTO 27013KT 10SM FEW028 OVC080 M04/M09 A2953 RMK AO2 SLP045
                 T10441089 FZRANO =
2017-11-20 06:56 METAR KPQI 201156Z AUTO 28010KT 10SM BKN075 M04/M09 A2952 RMK AO2 SLP040 60000
                 70051 T10441089 11017 21050 53035 FZRANO =
2017-11-20 06:05 METAR KPQI 201105Z AUTO 27014G25KT 10SM OVC030 M04/M09 A2948 RMK AO2 FZRANO =
2017-11-20 05:56 METAR KPQI 201056Z AUTO 28019G25KT 10SM OVC028 M04/M09 A2948 RMK AO2 SLP026
                 T10391089 FZRANO TSNO =
2017-11-20 04:56 METAR KPQI 200956Z AUTO 29014G25KT 10SM OVC026 M03/M08 A2944 RMK AO2 SLP014
                 T10331078 FZRANO =
2017-11-20 04:25 METAR KPQI 200925Z AUTO 29013G23KT 10SM OVC028 M03/M08 A2943 RMK AO2 FZRANO =
2017-11-20 03:56 METAR KPQI 200856Z AUTO 28013G22KT 10SM OVC033 M03/M08 A2942 RMK AO2 SNB24E34
                 SLP005 P0000 60000 T10281078 51018 FZRANO =
2017-11-20 02:56 METAR KPQI 200756Z AUTO 27012G16KT 10SM OVC037 M02/M07 A2941 RMK AO2 SLP002
                 T10221072 FZRANO =
2017-11-20 01:56 METAR KPQI 200656Z AUTO 27016G21KT 10SM OVC036 M02/M07 A2939 RMK AO2 SLP997
                 T10171067 FZRANO =
2017-11-20 00:56 METAR KPQI 200556Z AUTO 27010KT 10SM FEW029 OVC042 M02/M06 A2936 RMK AO2 SLP985
                 T10171061 10017 21017 51038 FZRANO =
2017-11-20 00:49 METAR KPQI 200549Z AUTO 27011G17KT 10SM FEW029 OVC042 M02/M07 A2936 RMK AO2
                 FZRANO =
2017-11-19 23:56 METAR KPQI 200456Z AUTO 27013G19KT 10SM OVC027 M02/M06 A2934 RMK AO2 PK WND
                 29027/0425 SLP977 T10171061 400831017 FZRANO =
2017-11-19 22:56 METAR KPQI 200356Z AUTO 27008G20KT 10SM OVC025 M01/M05 A2929 RMK AO2 SLP962
                 T10111050 FZRANO =
2017-11-19 21:56 METAR KPQI 200256Z AUTO 27012G18KT 10SM OVC023 M01/M04 A2925 RMK AO2 PK WND
                 29026/0225 SLP947 T10061039 51042 FZRANO =
2017-11-19 20:56 METAR KPQI 200156Z AUTO 27016G27KT 10SM OVC019 00/M03 A2922 RMK AO2 PK WND
                 28029/0135 SLP937 T00001033 FZRANO =
2017-11-19 19:56 METAR KPQI 200056Z AUTO 27014G22KT 10SM OVC015 01/M02 A2918 RMK AO2 SLP923
                 T00061017 FZRANO =
2017-11-19 18:56 METAR KPQI 192356Z AUTO 26012G21KT 10SM BKN020 OVC027 02/00 A2912 RMK AO2
                 RAB04E56 SLP904 P0000 60018 T00170000 10083 20017 53056 FZRANO =
2017-11-19 18:36 METAR KPQI 192336Z AUTO 25010KT 10SM -RA SCT015 BKN022 OVC027 02/01 A2911 RMK
                 AO2 RAB04 P0000 FZRANO =
2017-11-19 18:26 METAR KPQI 192326Z AUTO 27015G22KT 10SM -RA BKN013 BKN020 OVC027 02/01 A2910 RMK
                 AO2 RAB04 P0000 FZRANO =
2017-11-19 17:56 METAR KPQI 192256Z AUTO 26015G22KT 10SM BKN020 OVC027 03/01 A2907 RMK AO2 SLP886
                 T00330011 =
2017-11-19 16:56 METAR KPQI 192156Z AUTO 27015G22KT 10SM FEW015 BKN021 OVC060 06/04 A2901 RMK AO2
                 RAE27 SLP866 P0000 T00610039 =
2017-11-19 15:56 METAR KPQI 192056Z AUTO 27007KT 10SM -RA SCT004 BKN016 OVC025 07/06 A2896 RMK
                 AO2 SLP849 P0004 60018 T00670061 53009 =
2017-11-19 15:28 METAR KPQI 192028Z AUTO 27015G20KT 5SM -RA BR FEW006 BKN014 OVC022 08/07 A2894
                 RMK AO2 PRESRR P0003 =
2017-11-19 15:17 METAR KPQI 192017Z AUTO 00000KT 10SM -RA BKN016 BKN020 OVC037 08/07 A2891 RMK
                 AO2 P0002 =
2017-11-19 14:56 METAR KPQI 191956Z AUTO 32003KT 5SM RA BR FEW007 BKN039 OVC060 08/07 A2891 RMK
                 AO2 SLP834 P0012 T00780072 =
2017-11-19 14:51 METAR KPQI 191951Z AUTO 00000KT 3SM RA BR FEW007 SCT036 OVC060 08/08 A2892 RMK
                 AO2 P0011 =
2017-11-19 14:43 METAR KPQI 191943Z AUTO 00000KT 3SM RA BR FEW003 BKN006 OVC060 08/07 A2892 RMK
                 AO2 CIG 006V011 P0008 =

Support USWX by starting your Amazon purchase here.